sensor_id;sensor_type;location;lat;lon;timestamp;P1;durP1;ratioP1;P2;durP2;ratioP2
9940;SDS011;5009;50.656;7.188;2023-11-18T05:00:55;24.10;;;17.17;;
9940;SDS011;5009;50.656;7.188;2023-11-18T05:03:21;21.47;;;16.77;;
9940;SDS011;5009;50.656;7.188;2023-11-18T05:05:49;20.97;;;15.40;;
9940;SDS011;5009;50.656;7.188;2023-11-18T05:08:20;22.93;;;16.67;;
9940;SDS011;5009;50.656;7.188;2023-11-18T05:10:49;20.20;;;16.17;;
9940;SDS011;5009;50.656;7.188;2023-11-18T05:13:15;20.97;;;15.63;;
9940;SDS011;5009;50.656;7.188;2023-11-18T05:15:45;22.27;;;16.87;;
9940;SDS011;5009;50.656;7.188;2023-11-18T05:18:12;21.33;;;16.23;;
9940;SDS011;5009;50.656;7.188;2023-11-18T05:20:41;19.07;;;16.37;;
9940;SDS011;5009;50.656;7.188;2023-11-18T05:23:08;23.57;;;16.40;;
9940;SDS011;5009;50.656;7.188;2023-11-18T05:25:37;23.17;;;16.77;;
9940;SDS011;5009;50.656;7.188;2023-11-18T05:28:08;23.43;;;17.67;;
9940;SDS011;5009;50.656;7.188;2023-11-18T05:30:34;21.03;;;16.67;;
9940;SDS011;5009;50.656;7.188;2023-11-18T05:33:04;22.93;;;16.23;;
9940;SDS011;5009;50.656;7.188;2023-11-18T05:35:31;21.03;;;16.40;;
9940;SDS011;5009;50.656;7.188;2023-11-18T05:37:57;21.83;;;16.30;;
9940;SDS011;5009;50.656;7.188;2023-11-18T05:40:23;20.80;;;15.30;;
9940;SDS011;5009;50.656;7.188;2023-11-18T05:42:50;21.20;;;16.03;;
9940;SDS011;5009;50.656;7.188;2023-11-18T05:45:17;20.10;;;14.63;;
9940;SDS011;5009;50.656;7.188;2023-11-18T05:47:55;22.73;;;17.03;;
9940;SDS011;5009;50.656;7.188;2023-11-18T05:50:22;20.50;;;16.17;;
9940;SDS011;5009;50.656;7.188;2023-11-18T05:52:51;21.27;;;15.97;;
9940;SDS011;5009;50.656;7.188;2023-11-18T05:55:18;22.70;;;16.57;;
9940;SDS011;5009;50.656;7.188;2023-11-18T05:57:43;19.03;;;15.60;;
9940;SDS011;5009;50.656;7.188;2023-11-18T06:00:11;19.67;;;15.17;;
9940;SDS011;5009;50.656;7.188;2023-11-18T06:02:40;19.30;;;16.10;;
9940;SDS011;5009;50.656;7.188;2023-11-18T06:05:06;19.10;;;15.40;;
9940;SDS011;5009;50.656;7.188;2023-11-18T06:07:32;22.13;;;15.90;;
9940;SDS011;5009;50.656;7.188;2023-11-18T06:10:00;23.53;;;16.57;;
9940;SDS011;5009;50.656;7.188;2023-11-18T06:12:27;23.10;;;17.00;;
9940;SDS011;5009;50.656;7.188;2023-11-18T06:14:52;19.43;;;16.17;;
9940;SDS011;5009;50.656;7.188;2023-11-18T06:17:18;21.87;;;16.13;;
9940;SDS011;5009;50.656;7.188;2023-11-18T06:19:44;22.63;;;17.13;;
9940;SDS011;5009;50.656;7.188;2023-11-18T06:22:09;21.63;;;16.03;;
9940;SDS011;5009;50.656;7.188;2023-11-18T06:24:35;22.20;;;15.60;;
9940;SDS011;5009;50.656;7.188;2023-11-18T06:27:04;20.23;;;16.23;;
9940;SDS011;5009;50.656;7.188;2023-11-18T06:29:30;21.07;;;15.33;;
9940;SDS011;5009;50.656;7.188;2023-11-18T06:31:56;19.17;;;15.50;;
9940;SDS011;5009;50.656;7.188;2023-11-18T06:34:22;19.00;;;14.77;;
9940;SDS011;5009;50.656;7.188;2023-11-18T06:36:48;21.00;;;15.53;;
9940;SDS011;5009;50.656;7.188;2023-11-18T06:39:13;17.83;;;14.37;;
9940;SDS011;5009;50.656;7.188;2023-11-18T06:41:39;20.03;;;16.53;;
9940;SDS011;5009;50.656;7.188;2023-11-18T06:44:13;17.00;;;13.83;;
9940;SDS011;5009;50.656;7.188;2023-11-18T06:46:43;17.37;;;13.97;;
9940;SDS011;5009;50.656;7.188;2023-11-18T06:49:09;19.47;;;15.17;;
9940;SDS011;5009;50.656;7.188;2023-11-18T06:51:40;18.37;;;15.57;;
9940;SDS011;5009;50.656;7.188;2023-11-18T06:54:06;19.57;;;15.50;;
9940;SDS011;5009;50.656;7.188;2023-11-18T06:56:35;21.43;;;16.27;;
9940;SDS011;5009;50.656;7.188;2023-11-18T06:59:12;18.83;;;15.23;;
9940;SDS011;5009;50.656;7.188;2023-11-18T07:01:38;20.77;;;15.77;;
9940;SDS011;5009;50.656;7.188;2023-11-18T07:04:08;18.47;;;15.33;;
9940;SDS011;5009;50.656;7.188;2023-11-18T07:06:34;19.70;;;15.90;;
9940;SDS011;5009;50.656;7.188;2023-11-18T07:09:03;19.63;;;15.37;;
9940;SDS011;5009;50.656;7.188;2023-11-18T07:11:34;18.07;;;14.67;;
9940;SDS011;5009;50.656;7.188;2023-11-18T07:14:00;18.40;;;14.70;;
9940;SDS011;5009;50.656;7.188;2023-11-18T07:16:25;17.07;;;14.10;;
9940;SDS011;5009;50.656;7.188;2023-11-18T07:18:51;16.20;;;13.67;;
9940;SDS011;5009;50.656;7.188;2023-11-18T07:21:17;17.37;;;13.23;;
9940;SDS011;5009;50.656;7.188;2023-11-18T07:23:43;17.80;;;13.50;;
9940;SDS011;5009;50.656;7.188;2023-11-18T07:26:09;16.37;;;13.43;;
9940;SDS011;5009;50.656;7.188;2023-11-18T07:28:35;15.40;;;12.97;;
9940;SDS011;5009;50.656;7.188;2023-11-18T07:31:01;15.27;;;13.67;;
9940;SDS011;5009;50.656;7.188;2023-11-18T07:33:29;16.70;;;12.83;;
9940;SDS011;5009;50.656;7.188;2023-11-18T07:35:56;17.40;;;13.23;;
9940;SDS011;5009;50.656;7.188;2023-11-18T07:38:21;18.07;;;13.27;;
9940;SDS011;5009;50.656;7.188;2023-11-18T07:40:48;15.73;;;12.77;;
9940;SDS011;5009;50.656;7.188;2023-11-18T07:43:17;14.40;;;12.83;;
9940;SDS011;5009;50.656;7.188;2023-11-18T07:45:43;18.53;;;13.90;;
9940;SDS011;5009;50.656;7.188;2023-11-18T07:48:11;16.00;;;13.40;;
9940;SDS011;5009;50.656;7.188;2023-11-18T07:50:38;14.63;;;13.03;;
9940;SDS011;5009;50.656;7.188;2023-11-18T07:53:09;15.60;;;12.77;;
9940;SDS011;5009;50.656;7.188;2023-11-18T07:55:35;16.33;;;13.03;;
9940;SDS011;5009;50.656;7.188;2023-11-18T07:58:04;17.30;;;13.33;;
9940;SDS011;5009;50.656;7.188;2023-11-18T08:00:39;14.63;;;12.73;;
9940;SDS011;5009;50.656;7.188;2023-11-18T08:03:11;14.53;;;12.70;;
9940;SDS011;5009;50.656;7.188;2023-11-18T08:05:38;17.27;;;12.93;;
9940;SDS011;5009;50.656;7.188;2023-11-18T08:08:05;19.30;;;13.67;;
9940;SDS011;5009;50.656;7.188;2023-11-18T08:10:31;15.93;;;13.30;;
9940;SDS011;5009;50.656;7.188;2023-11-18T08:12:58;14.57;;;13.03;;
9940;SDS011;5009;50.656;7.188;2023-11-18T08:15:23;17.07;;;12.80;;
9940;SDS011;5009;50.656;7.188;2023-11-18T08:17:51;15.60;;;12.43;;
9940;SDS011;5009;50.656;7.188;2023-11-18T08:20:18;16.77;;;12.37;;
9940;SDS011;5009;50.656;7.188;2023-11-18T08:22:46;15.70;;;11.93;;
9940;SDS011;5009;50.656;7.188;2023-11-18T08:25:12;14.37;;;12.37;;
9940;SDS011;5009;50.656;7.188;2023-11-18T08:27:41;18.57;;;11.47;;
9940;SDS011;5009;50.656;7.188;2023-11-18T08:30:07;13.90;;;11.87;;
9940;SDS011;5009;50.656;7.188;2023-11-18T08:32:37;16.77;;;12.43;;
9940;SDS011;5009;50.656;7.188;2023-11-18T08:35:03;15.63;;;11.30;;
9940;SDS011;5009;50.656;7.188;2023-11-18T08:37:33;16.37;;;11.97;;
9940;SDS011;5009;50.656;7.188;2023-11-18T08:40:01;17.87;;;12.47;;
9940;SDS011;5009;50.656;7.188;2023-11-18T08:42:47;17.70;;;12.03;;
9940;SDS011;5009;50.656;7.188;2023-11-18T08:45:15;17.27;;;11.43;;
9940;SDS011;5009;50.656;7.188;2023-11-18T08:47:46;15.07;;;11.73;;
9940;SDS011;5009;50.656;7.188;2023-11-18T08:50:16;14.07;;;11.73;;
9940;SDS011;5009;50.656;7.188;2023-11-18T08:52:42;13.90;;;11.80;;
9940;SDS011;5009;50.656;7.188;2023-11-18T08:55:12;12.57;;;10.90;;
9940;SDS011;5009;50.656;7.188;2023-11-18T08:57:50;14.63;;;11.20;;
9940;SDS011;5009;50.656;7.188;2023-11-18T09:00:29;13.23;;;11.83;;
9940;SDS011;5009;50.656;7.188;2023-11-18T09:03:14;14.00;;;11.67;;
9940;SDS011;5009;50.656;7.188;2023-11-18T09:06:03;17.30;;;12.47;;
9940;SDS011;5009;50.656;7.188;2023-11-18T09:08:34;13.53;;;11.47;;
9940;SDS011;5009;50.656;7.188;2023-11-18T09:11:08;15.77;;;12.00;;
9940;SDS011;5009;50.656;7.188;2023-11-18T09:13:35;14.23;;;11.47;;
9940;SDS011;5009;50.656;7.188;2023-11-18T09:16:05;14.83;;;11.47;;
9940;SDS011;5009;50.656;7.188;2023-11-18T09:18:38;13.10;;;11.50;;
9940;SDS011;5009;50.656;7.188;2023-11-18T09:21:05;13.10;;;10.67;;
9940;SDS011;5009;50.656;7.188;2023-11-18T09:23:31;14.33;;;10.53;;
9940;SDS011;5009;50.656;7.188;2023-11-18T09:26:00;11.63;;;9.97;;
9940;SDS011;5009;50.656;7.188;2023-11-18T09:28:28;13.20;;;10.13;;
9940;SDS011;5009;50.656;7.188;2023-11-18T09:30:54;12.60;;;10.93;;
9940;SDS011;5009;50.656;7.188;2023-11-18T09:33:23;13.10;;;10.77;;
9940;SDS011;5009;50.656;7.188;2023-11-18T09:36:08;12.10;;;10.50;;
9940;SDS011;5009;50.656;7.188;2023-11-18T09:38:37;12.77;;;10.43;;
9940;SDS011;5009;50.656;7.188;2023-11-18T09:41:09;13.10;;;10.43;;
9940;SDS011;5009;50.656;7.188;2023-11-18T09:43:38;11.37;;;10.17;;
9940;SDS011;5009;50.656;7.188;2023-11-18T09:46:10;11.13;;;9.93;;
9940;SDS011;5009;50.656;7.188;2023-11-18T09:48:46;11.80;;;10.53;;
9940;SDS011;5009;50.656;7.188;2023-11-18T09:51:25;11.10;;;9.47;;
9940;SDS011;5009;50.656;7.188;2023-11-18T09:53:57;11.63;;;9.57;;
9940;SDS011;5009;50.656;7.188;2023-11-18T09:59:11;13.40;;;9.80;;
9940;SDS011;5009;50.656;7.188;2023-11-18T10:01:44;9.23;;;8.33;;
9940;SDS011;5009;50.656;7.188;2023-11-18T10:04:22;11.83;;;9.43;;
9940;SDS011;5009;50.656;7.188;2023-11-18T10:06:52;9.50;;;8.60;;
9940;SDS011;5009;50.656;7.188;2023-11-18T10:09:18;11.87;;;9.30;;
9940;SDS011;5009;50.656;7.188;2023-11-18T10:11:53;9.67;;;8.67;;
9940;SDS011;5009;50.656;7.188;2023-11-18T10:14:30;11.40;;;9.13;;
9940;SDS011;5009;50.656;7.188;2023-11-18T10:16:59;9.73;;;8.37;;
9940;SDS011;5009;50.656;7.188;2023-11-18T10:22:37;13.40;;;8.40;;
9940;SDS011;5009;50.656;7.188;2023-11-18T10:25:03;10.40;;;8.63;;
9940;SDS011;5009;50.656;7.188;2023-11-18T10:27:31;11.10;;;8.60;;
9940;SDS011;5009;50.656;7.188;2023-11-18T10:30:03;10.03;;;8.60;;
9940;SDS011;5009;50.656;7.188;2023-11-18T10:32:29;11.40;;;8.83;;
9940;SDS011;5009;50.656;7.188;2023-11-18T10:35:00;11.43;;;8.47;;
9940;SDS011;5009;50.656;7.188;2023-11-18T10:37:29;10.70;;;8.70;;
9940;SDS011;5009;50.656;7.188;2023-11-18T10:39:56;11.70;;;8.53;;
9940;SDS011;5009;50.656;7.188;2023-11-18T10:42:22;9.73;;;7.43;;
9940;SDS011;5009;50.656;7.188;2023-11-18T10:44:55;9.13;;;8.17;;
9940;SDS011;5009;50.656;7.188;2023-11-18T10:47:27;11.93;;;7.90;;
9940;SDS011;5009;50.656;7.188;2023-11-18T10:49:56;8.97;;;7.30;;
9940;SDS011;5009;50.656;7.188;2023-11-18T10:52:22;11.37;;;7.17;;
9940;SDS011;5009;50.656;7.188;2023-11-18T10:54:50;9.77;;;7.57;;
9940;SDS011;5009;50.656;7.188;2023-11-18T10:57:19;9.57;;;7.03;;
9940;SDS011;5009;50.656;7.188;2023-11-18T10:59:58;7.37;;;6.50;;
9940;SDS011;5009;50.656;7.188;2023-11-18T11:02:25;10.27;;;6.73;;
9940;SDS011;5009;50.656;7.188;2023-11-18T11:04:50;8.50;;;6.67;;
9940;SDS011;5009;50.656;7.188;2023-11-18T11:07:17;9.80;;;7.60;;
9940;SDS011;5009;50.656;7.188;2023-11-18T11:09:48;9.83;;;6.67;;
9940;SDS011;5009;50.656;7.188;2023-11-18T11:12:21;8.43;;;7.53;;
9940;SDS011;5009;50.656;7.188;2023-11-18T11:14:56;8.03;;;6.73;;
9940;SDS011;5009;50.656;7.188;2023-11-18T11:17:24;9.63;;;7.00;;
9940;SDS011;5009;50.656;7.188;2023-11-18T11:22:38;10.53;;;7.00;;
9940;SDS011;5009;50.656;7.188;2023-11-18T11:28:00;8.37;;;7.03;;
9940;SDS011;5009;50.656;7.188;2023-11-18T11:30:42;11.87;;;7.83;;
9940;SDS011;5009;50.656;7.188;2023-11-18T11:33:32;9.10;;;7.47;;
9940;SDS011;5009;50.656;7.188;2023-11-18T11:36:05;8.97;;;7.77;;
9940;SDS011;5009;50.656;7.188;2023-11-18T11:38:37;12.07;;;7.73;;
9940;SDS011;5009;50.656;7.188;2023-11-18T11:41:03;11.03;;;7.77;;
9940;SDS011;5009;50.656;7.188;2023-11-18T11:43:30;8.23;;;7.33;;
9940;SDS011;5009;50.656;7.188;2023-11-18T11:45:59;9.70;;;7.27;;
9940;SDS011;5009;50.656;7.188;2023-11-18T11:48:28;9.00;;;7.37;;
9940;SDS011;5009;50.656;7.188;2023-11-18T11:51:24;11.10;;;7.90;;
9940;SDS011;5009;50.656;7.188;2023-11-18T11:53:52;10.33;;;7.90;;
9940;SDS011;5009;50.656;7.188;2023-11-18T11:56:43;10.50;;;8.17;;
9940;SDS011;5009;50.656;7.188;2023-11-18T11:59:17;11.97;;;8.20;;
9940;SDS011;5009;50.656;7.188;2023-11-18T12:02:00;13.30;;;8.10;;
9940;SDS011;5009;50.656;7.188;2023-11-18T12:04:32;10.43;;;7.93;;
9940;SDS011;5009;50.656;7.188;2023-11-18T12:07:03;11.93;;;9.30;;
9940;SDS011;5009;50.656;7.188;2023-11-18T12:09:30;10.43;;;8.67;;
9940;SDS011;5009;50.656;7.188;2023-11-18T12:12:02;10.97;;;8.57;;
9940;SDS011;5009;50.656;7.188;2023-11-18T12:14:29;12.10;;;9.13;;
9940;SDS011;5009;50.656;7.188;2023-11-18T12:17:06;12.03;;;8.83;;
9940;SDS011;5009;50.656;7.188;2023-11-18T12:19:38;11.30;;;9.13;;
9940;SDS011;5009;50.656;7.188;2023-11-18T12:22:17;11.47;;;8.47;;
9940;SDS011;5009;50.656;7.188;2023-11-18T12:25:28;12.30;;;8.67;;
9940;SDS011;5009;50.656;7.188;2023-11-18T12:40:59;10.17;;;7.83;;
9940;SDS011;5009;50.656;7.188;2023-11-18T12:43:49;10.40;;;7.80;;
9940;SDS011;5009;50.656;7.188;2023-11-18T12:49:18;11.20;;;8.23;;
9940;SDS011;5009;50.656;7.188;2023-11-18T12:51:51;7.93;;;7.07;;
9940;SDS011;5009;50.656;7.188;2023-11-18T12:54:21;11.00;;;8.00;;
9940;SDS011;5009;50.656;7.188;2023-11-18T12:56:50;9.43;;;7.53;;
9940;SDS011;5009;50.656;7.188;2023-11-18T12:59:18;9.83;;;7.57;;
9940;SDS011;5009;50.656;7.188;2023-11-18T13:01:48;8.47;;;6.73;;
9940;SDS011;5009;50.656;7.188;2023-11-18T13:04:28;8.87;;;6.40;;
9940;SDS011;5009;50.656;7.188;2023-11-18T13:06:55;8.40;;;6.53;;
9940;SDS011;5009;50.656;7.188;2023-11-18T13:09:22;8.63;;;6.33;;
9940;SDS011;5009;50.656;7.188;2023-11-18T13:11:52;7.93;;;6.00;;
9940;SDS011;5009;50.656;7.188;2023-11-18T13:14:21;8.57;;;5.93;;
9940;SDS011;5009;50.656;7.188;2023-11-18T13:16:54;8.50;;;5.60;;
9940;SDS011;5009;50.656;7.188;2023-11-18T13:19:27;8.17;;;5.80;;
9940;SDS011;5009;50.656;7.188;2023-11-18T13:22:00;7.97;;;5.60;;
9940;SDS011;5009;50.656;7.188;2023-11-18T13:24:28;6.53;;;5.23;;
9940;SDS011;5009;50.656;7.188;2023-11-18T13:26:57;7.00;;;5.43;;
9940;SDS011;5009;50.656;7.188;2023-11-18T13:29:28;7.63;;;5.40;;
9940;SDS011;5009;50.656;7.188;2023-11-18T13:31:54;8.27;;;5.90;;
9940;SDS011;5009;50.656;7.188;2023-11-18T13:34:22;9.17;;;5.17;;
9940;SDS011;5009;50.656;7.188;2023-11-18T13:36:48;8.63;;;6.00;;
9940;SDS011;5009;50.656;7.188;2023-11-18T13:39:15;6.50;;;5.10;;
9940;SDS011;5009;50.656;7.188;2023-11-18T13:41:45;6.00;;;5.27;;
9940;SDS011;5009;50.656;7.188;2023-11-18T13:44:31;8.43;;;5.23;;
9940;SDS011;5009;50.656;7.188;2023-11-18T13:46:59;7.27;;;4.97;;
9940;SDS011;5009;50.656;7.188;2023-11-18T13:49:29;6.80;;;5.40;;
9940;SDS011;5009;50.656;7.188;2023-11-18T13:51:55;7.43;;;5.70;;
9940;SDS011;5009;50.656;7.188;2023-11-18T13:54:21;8.60;;;5.50;;
9940;SDS011;5009;50.656;7.188;2023-11-18T13:56:48;7.43;;;5.40;;
9940;SDS011;5009;50.656;7.188;2023-11-18T13:59:15;6.47;;;5.33;;
9940;SDS011;5009;50.656;7.188;2023-11-18T14:01:41;7.80;;;5.30;;
9940;SDS011;5009;50.656;7.188;2023-11-18T14:04:07;7.33;;;6.13;;
9940;SDS011;5009;50.656;7.188;2023-11-18T14:06:35;7.67;;;5.63;;
9940;SDS011;5009;50.656;7.188;2023-11-18T14:09:02;8.93;;;7.10;;
9940;SDS011;5009;50.656;7.188;2023-11-18T14:11:29;8.33;;;6.43;;
9940;SDS011;5009;50.656;7.188;2023-11-18T14:13:56;8.47;;;6.37;;
9940;SDS011;5009;50.656;7.188;2023-11-18T14:16:23;6.27;;;5.50;;
9940;SDS011;5009;50.656;7.188;2023-11-18T14:18:51;7.30;;;6.13;;
9940;SDS011;5009;50.656;7.188;2023-11-18T14:21:17;7.47;;;6.13;;
9940;SDS011;5009;50.656;7.188;2023-11-18T14:23:43;8.07;;;6.13;;
9940;SDS011;5009;50.656;7.188;2023-11-18T14:26:08;7.57;;;6.10;;
9940;SDS011;5009;50.656;7.188;2023-11-18T14:28:34;7.73;;;6.20;;
9940;SDS011;5009;50.656;7.188;2023-11-18T14:31:00;7.43;;;6.40;;
9940;SDS011;5009;50.656;7.188;2023-11-18T14:33:29;10.50;;;6.40;;
9940;SDS011;5009;50.656;7.188;2023-11-18T14:35:58;8.30;;;7.37;;
9940;SDS011;5009;50.656;7.188;2023-11-18T14:38:30;10.50;;;7.27;;
9940;SDS011;5009;50.656;7.188;2023-11-18T14:40:55;5.97;;;5.33;;
9940;SDS011;5009;50.656;7.188;2023-11-18T14:43:21;8.20;;;5.80;;
9940;SDS011;5009;50.656;7.188;2023-11-18T14:45:47;7.33;;;5.93;;
9940;SDS011;5009;50.656;7.188;2023-11-18T14:48:13;8.63;;;6.50;;
9940;SDS011;5009;50.656;7.188;2023-11-18T14:50:39;8.23;;;6.43;;
9940;SDS011;5009;50.656;7.188;2023-11-18T14:53:04;8.47;;;6.93;;
9940;SDS011;5009;50.656;7.188;2023-11-18T14:55:30;7.20;;;6.50;;
9940;SDS011;5009;50.656;7.188;2023-11-18T14:57:57;8.13;;;6.33;;
9940;SDS011;5009;50.656;7.188;2023-11-18T15:00:23;8.90;;;6.80;;
9940;SDS011;5009;50.656;7.188;2023-11-18T15:02:53;9.33;;;5.77;;
9940;SDS011;5009;50.656;7.188;2023-11-18T15:05:20;6.97;;;5.97;;
9940;SDS011;5009;50.656;7.188;2023-11-18T15:07:46;7.10;;;6.40;;
9940;SDS011;5009;50.656;7.188;2023-11-18T15:10:14;8.40;;;6.70;;
9940;SDS011;5009;50.656;7.188;2023-11-18T15:12:44;11.50;;;6.47;;
9940;SDS011;5009;50.656;7.188;2023-11-18T15:15:14;6.10;;;5.50;;
9940;SDS011;5009;50.656;7.188;2023-11-18T15:17:46;10.33;;;6.50;;
9940;SDS011;5009;50.656;7.188;2023-11-18T15:20:16;8.70;;;5.03;;
9940;SDS011;5009;50.656;7.188;2023-11-18T15:22:45;5.73;;;4.80;;
9940;SDS011;5009;50.656;7.188;2023-11-18T15:25:11;5.93;;;5.00;;
9940;SDS011;5009;50.656;7.188;2023-11-18T15:27:38;5.63;;;5.13;;
9940;SDS011;5009;50.656;7.188;2023-11-18T15:30:06;5.73;;;4.87;;
9940;SDS011;5009;50.656;7.188;2023-11-18T15:32:35;7.90;;;5.03;;
9940;SDS011;5009;50.656;7.188;2023-11-18T15:35:07;6.07;;;5.47;;
9940;SDS011;5009;50.656;7.188;2023-11-18T15:37:34;6.57;;;4.63;;
9940;SDS011;5009;50.656;7.188;2023-11-18T15:40:06;5.10;;;4.60;;
9940;SDS011;5009;50.656;7.188;2023-11-18T15:42:40;6.50;;;4.53;;
9940;SDS011;5009;50.656;7.188;2023-11-18T15:45:12;5.60;;;5.00;;
9940;SDS011;5009;50.656;7.188;2023-11-18T15:47:40;7.63;;;5.00;;
9940;SDS011;5009;50.656;7.188;2023-11-18T15:50:08;8.40;;;4.57;;
9940;SDS011;5009;50.656;7.188;2023-11-18T15:52:41;7.10;;;5.00;;
9940;SDS011;5009;50.656;7.188;2023-11-18T15:55:07;9.07;;;5.80;;
9940;SDS011;5009;50.656;7.188;2023-11-18T15:57:41;5.80;;;5.17;;
9940;SDS011;5009;50.656;7.188;2023-11-18T16:00:08;7.87;;;4.83;;
9940;SDS011;5009;50.656;7.188;2023-11-18T16:02:45;6.77;;;4.90;;
9940;SDS011;5009;50.656;7.188;2023-11-18T16:05:13;6.60;;;5.63;;
9940;SDS011;5009;50.656;7.188;2023-11-18T16:07:42;6.33;;;4.90;;
9940;SDS011;5009;50.656;7.188;2023-11-18T16:10:12;8.63;;;5.00;;
9940;SDS011;5009;50.656;7.188;2023-11-18T16:13:04;8.03;;;4.67;;
9940;SDS011;5009;50.656;7.188;2023-11-18T16:15:29;6.17;;;5.03;;
9940;SDS011;5009;50.656;7.188;2023-11-18T16:17:57;6.60;;;5.10;;
9940;SDS011;5009;50.656;7.188;2023-11-18T16:20:24;6.37;;;4.60;;
9940;SDS011;5009;50.656;7.188;2023-11-18T16:22:52;4.60;;;4.17;;
9940;SDS011;5009;50.656;7.188;2023-11-18T16:25:22;5.77;;;4.37;;
9940;SDS011;5009;50.656;7.188;2023-11-18T16:27:48;4.53;;;4.13;;
9940;SDS011;5009;50.656;7.188;2023-11-18T16:30:15;4.87;;;4.43;;
9940;SDS011;5009;50.656;7.188;2023-11-18T16:32:42;4.97;;;4.47;;
9940;SDS011;5009;50.656;7.188;2023-11-18T16:35:08;4.37;;;3.90;;
9940;SDS011;5009;50.656;7.188;2023-11-18T16:37:40;4.80;;;4.30;;
9940;SDS011;5009;50.656;7.188;2023-11-18T16:40:07;4.40;;;3.67;;
9940;SDS011;5009;50.656;7.188;2023-11-18T16:42:41;3.83;;;3.43;;
9940;SDS011;5009;50.656;7.188;2023-11-18T16:45:14;5.37;;;3.57;;
9940;SDS011;5009;50.656;7.188;2023-11-18T16:47:40;4.30;;;3.70;;
9940;SDS011;5009;50.656;7.188;2023-11-18T16:50:09;5.53;;;4.87;;
9940;SDS011;5009;50.656;7.188;2023-11-18T16:52:36;5.53;;;4.20;;
9940;SDS011;5009;50.656;7.188;2023-11-18T16:55:05;4.10;;;3.70;;
9940;SDS011;5009;50.656;7.188;2023-11-18T16:57:33;4.83;;;4.00;;
9940;SDS011;5009;50.656;7.188;2023-11-18T17:00:00;6.73;;;4.33;;
9940;SDS011;5009;50.656;7.188;2023-11-18T17:02:40;4.07;;;3.77;;
9940;SDS011;5009;50.656;7.188;2023-11-18T17:05:06;4.53;;;3.83;;
9940;SDS011;5009;50.656;7.188;2023-11-18T17:07:31;3.70;;;3.40;;
9940;SDS011;5009;50.656;7.188;2023-11-18T17:09:57;4.10;;;3.77;;
9940;SDS011;5009;50.656;7.188;2023-11-18T17:12:23;5.60;;;3.80;;
9940;SDS011;5009;50.656;7.188;2023-11-18T17:14:48;4.20;;;3.80;;
9940;SDS011;5009;50.656;7.188;2023-11-18T17:17:14;4.77;;;3.90;;
9940;SDS011;5009;50.656;7.188;2023-11-18T17:19:40;4.20;;;3.50;;
9940;SDS011;5009;50.656;7.188;2023-11-18T17:22:05;5.70;;;5.23;;
9940;SDS011;5009;50.656;7.188;2023-11-18T17:24:31;3.80;;;3.50;;
9940;SDS011;5009;50.656;7.188;2023-11-18T17:26:56;4.70;;;3.93;;
9940;SDS011;5009;50.656;7.188;2023-11-18T17:29:24;3.33;;;3.13;;
9940;SDS011;5009;50.656;7.188;2023-11-18T17:31:50;5.43;;;3.80;;
9940;SDS011;5009;50.656;7.188;2023-11-18T17:34:16;4.23;;;3.93;;
9940;SDS011;5009;50.656;7.188;2023-11-18T17:36:41;4.93;;;4.20;;
9940;SDS011;5009;50.656;7.188;2023-11-18T17:39:08;3.40;;;3.10;;
9940;SDS011;5009;50.656;7.188;2023-11-18T17:41:36;3.40;;;3.20;;
9940;SDS011;5009;50.656;7.188;2023-11-18T17:44:02;4.13;;;3.17;;
9940;SDS011;5009;50.656;7.188;2023-11-18T17:46:27;4.57;;;3.20;;
9940;SDS011;5009;50.656;7.188;2023-11-18T17:48:53;3.43;;;3.13;;
9940;SDS011;5009;50.656;7.188;2023-11-18T17:51:18;3.80;;;3.50;;
9940;SDS011;5009;50.656;7.188;2023-11-18T17:53:47;3.80;;;3.50;;
9940;SDS011;5009;50.656;7.188;2023-11-18T17:56:12;5.97;;;3.03;;
9940;SDS011;5009;50.656;7.188;2023-11-18T17:58:38;3.37;;;3.10;;
9940;SDS011;5009;50.656;7.188;2023-11-18T18:01:04;3.70;;;3.40;;
9940;SDS011;5009;50.656;7.188;2023-11-18T18:03:31;5.30;;;3.57;;
9940;SDS011;5009;50.656;7.188;2023-11-18T18:05:57;3.20;;;2.97;;
9940;SDS011;5009;50.656;7.188;2023-11-18T18:08:22;4.53;;;3.60;;
9940;SDS011;5009;50.656;7.188;2023-11-18T18:10:48;3.47;;;3.13;;
9940;SDS011;5009;50.656;7.188;2023-11-18T18:13:14;3.53;;;3.23;;
9940;SDS011;5009;50.656;7.188;2023-11-18T18:15:40;4.77;;;3.17;;
9940;SDS011;5009;50.656;7.188;2023-11-18T18:18:06;3.17;;;2.87;;
9940;SDS011;5009;50.656;7.188;2023-11-18T18:20:33;3.77;;;3.40;;
9940;SDS011;5009;50.656;7.188;2023-11-18T18:22:59;3.67;;;2.70;;
9940;SDS011;5009;50.656;7.188;2023-11-18T18:25:25;4.00;;;3.60;;
9940;SDS011;5009;50.656;7.188;2023-11-18T18:27:50;5.57;;;2.93;;
9940;SDS011;5009;50.656;7.188;2023-11-18T18:30:16;2.90;;;2.70;;
9940;SDS011;5009;50.656;7.188;2023-11-18T18:32:42;5.43;;;4.93;;
9940;SDS011;5009;50.656;7.188;2023-11-18T18:35:08;4.40;;;2.93;;
9940;SDS011;5009;50.656;7.188;2023-11-18T18:37:35;3.93;;;3.63;;
9940;SDS011;5009;50.656;7.188;2023-11-18T18:40:01;3.00;;;2.80;;
9940;SDS011;5009;50.656;7.188;2023-11-18T18:42:28;2.80;;;2.63;;
9940;SDS011;5009;50.656;7.188;2023-11-18T18:44:53;4.27;;;3.10;;
9940;SDS011;5009;50.656;7.188;2023-11-18T18:47:19;3.00;;;2.70;;
9940;SDS011;5009;50.656;7.188;2023-11-18T18:49:46;3.73;;;2.87;;
9940;SDS011;5009;50.656;7.188;2023-11-18T18:52:12;2.47;;;2.30;;
9940;SDS011;5009;50.656;7.188;2023-11-18T18:54:38;3.10;;;2.90;;
9940;SDS011;5009;50.656;7.188;2023-11-18T18:57:03;3.60;;;2.93;;
9940;SDS011;5009;50.656;7.188;2023-11-18T18:59:30;5.13;;;2.70;;
9940;SDS011;5009;50.656;7.188;2023-11-18T19:01:56;2.70;;;2.50;;
9940;SDS011;5009;50.656;7.188;2023-11-18T19:04:22;3.00;;;2.80;;
9940;SDS011;5009;50.656;7.188;2023-11-18T19:06:47;2.73;;;2.53;;
9940;SDS011;5009;50.656;7.188;2023-11-18T19:09:14;3.03;;;2.83;;
9940;SDS011;5009;50.656;7.188;2023-11-18T19:11:42;2.77;;;2.57;;
9940;SDS011;5009;50.656;7.188;2023-11-18T19:14:09;2.40;;;2.20;;
9940;SDS011;5009;50.656;7.188;2023-11-18T19:16:35;2.53;;;2.33;;
9940;SDS011;5009;50.656;7.188;2023-11-18T19:19:01;2.77;;;2.53;;
9940;SDS011;5009;50.656;7.188;2023-11-18T19:21:26;3.63;;;2.70;;
9940;SDS011;5009;50.656;7.188;2023-11-18T19:23:54;2.87;;;2.67;;
9940;SDS011;5009;50.656;7.188;2023-11-18T19:26:20;2.87;;;2.67;;
9940;SDS011;5009;50.656;7.188;2023-11-18T19:28:49;3.63;;;3.33;;
9940;SDS011;5009;50.656;7.188;2023-11-18T19:31:15;3.10;;;2.80;;
9940;SDS011;5009;50.656;7.188;2023-11-18T19:33:41;3.57;;;3.30;;
9940;SDS011;5009;50.656;7.188;2023-11-18T19:36:10;4.13;;;2.80;;
9940;SDS011;5009;50.656;7.188;2023-11-18T19:38:39;8.17;;;6.77;;
9940;SDS011;5009;50.656;7.188;2023-11-18T19:41:05;5.80;;;5.20;;
9940;SDS011;5009;50.656;7.188;2023-11-18T19:43:31;3.30;;;3.03;;
9940;SDS011;5009;50.656;7.188;2023-11-18T19:45:58;4.07;;;2.27;;
9940;SDS011;5009;50.656;7.188;2023-11-18T19:48:24;2.83;;;2.63;;
9940;SDS011;5009;50.656;7.188;2023-11-18T19:50:49;2.27;;;2.07;;
9940;SDS011;5009;50.656;7.188;2023-11-18T19:53:16;3.33;;;2.97;;
9940;SDS011;5009;50.656;7.188;2023-11-18T19:55:42;4.40;;;4.00;;
9940;SDS011;5009;50.656;7.188;2023-11-18T19:58:08;2.67;;;2.53;;
9940;SDS011;5009;50.656;7.188;2023-11-18T20:00:33;2.10;;;2.00;;
9940;SDS011;5009;50.656;7.188;2023-11-18T20:02:59;2.47;;;2.37;;
9940;SDS011;5009;50.656;7.188;2023-11-18T20:05:25;4.30;;;2.03;;
9940;SDS011;5009;50.656;7.188;2023-11-18T20:07:51;3.43;;;3.13;;
9940;SDS011;5009;50.656;7.188;2023-11-18T20:10:17;3.77;;;2.47;;
9940;SDS011;5009;50.656;7.188;2023-11-18T20:12:42;2.17;;;1.73;;
9940;SDS011;5009;50.656;7.188;2023-11-18T20:15:08;1.60;;;1.50;;
9940;SDS011;5009;50.656;7.188;2023-11-18T20:17:36;1.83;;;1.73;;
9940;SDS011;5009;50.656;7.188;2023-11-18T20:20:02;1.90;;;1.80;;
9940;SDS011;5009;50.656;7.188;2023-11-18T20:22:33;1.70;;;1.60;;
9940;SDS011;5009;50.656;7.188;2023-11-18T20:25:00;2.33;;;1.87;;
9940;SDS011;5009;50.656;7.188;2023-11-18T20:27:26;1.87;;;1.70;;
9940;SDS011;5009;50.656;7.188;2023-11-18T20:29:52;2.00;;;1.90;;
9940;SDS011;5009;50.656;7.188;2023-11-18T20:32:17;1.70;;;1.60;;
9940;SDS011;5009;50.656;7.188;2023-11-18T20:34:43;2.23;;;1.80;;
9940;SDS011;5009;50.656;7.188;2023-11-18T20:37:09;2.37;;;2.20;;
9940;SDS011;5009;50.656;7.188;2023-11-18T20:39:35;1.70;;;1.60;;
9940;SDS011;5009;50.656;7.188;2023-11-18T20:42:02;1.10;;;1.00;;